• Join FlightAware (Why Join?)
  • Login
  • US Flag 
03:06AM EDT


 

Airport Tracker/Info


-or-


 

Live Flight TrackerFlight Track Log ✈ N665LF ✈ 26-Apr-2013 ✈ KBED - KACK

Flight Track Log - Related Links

Times and Time Zones

All times are in EDT time to prevent confusion due to time zone crossing. See the N665LF flight status page for this flight to view local times or setup timezone preferences in your user account.

Time Position Orientation Groundspeed Altitude Reporting Facility
EDT Latitude Longitude Course Direction KTS MPH feet Rate Location/Type
10:20AM 42.4667 -71.2667 206° Southwest 89 102 900  Level KA90
10:21AM 42.4167 -71.3000 206° Southwest 159 183 2,500 1,140 Climbing KA90
10:23AM 42.3833 -71.3333 216° Southwest 147 169 3,800 1,080 Climbing KA90
10:24AM 42.3333 -71.3333 180° South 160 184 5,000 1,020 Climbing KA90
10:25AM 42.3167 -71.3000 124° Southeast 148 170 5,900 900 Climbing KA90
10:26AM 42.2833 -71.2667 144° Southeast 154 177 6,800 840 Climbing KA90
10:27AM 42.2667 -71.2167 114° Southeast 155 178 7,600 300 Climbing KA90
10:28AM 42.2167 -71.1667 143° Southeast 191 220 7,500 -60 Descending KA90
10:28AM 42.1833 -71.1167 132° Southeast 197 227 7,500  Level KA90
10:29AM 42.1500 -71.0833 143° Southeast 194 223 7,500  Level KA90
10:30AM 42.1000 -71.0333 143° Southeast 194 223 7,500  Level KA90
10:31AM 42.0667 -70.9833 132° Southeast 195 224 7,500  Level KA90
10:32AM 42.0167 -70.9333 143° Southeast 197 227 7,500  Level KA90
10:34AM 41.9796 -70.8903 139° Southeast  Level Estimated
10:41AM 41.7359 -70.6090 139° Southeast  Level Estimated
10:42AM 41.7010 -70.5690 139° Southeast  Level Estimated
10:43AM 41.6661 -70.5290 139° Southeast  Level Estimated
10:44AM 41.6312 -70.4891 139° Southeast  Level Estimated
10:45AM 41.5963 -70.4492 139° Southeast  Level Estimated
10:46AM 41.5614 -70.4094 140° Southeast  Level Estimated
10:47AM 41.5265 -70.3696 140° Southeast  Level Estimated
10:48AM 41.4915 -70.3299 140° Southeast  Level Estimated
10:49AM 41.4565 -70.2902 140° Southeast  Level Estimated
10:50AM 41.4216 -70.2505 140° Southeast  Level Estimated
10:51AM 41.3866 -70.2109 140° Southeast  Level Estimated
10:52AM 41.3516 -70.1713 140° Southeast  Level Estimated
10:53AM 41.3165 -70.1318 140° Southeast  Level Estimated
10:54AM 41.2815 -70.0923 140° Southeast  Level Estimated
10:55AM 41.2531 -70.0603 140° Southeast  Level Estimated
10:56AM 41.2531 -70.0603 72° East  Level Estimated
10:57AM 41.2531 -70.0603 72° East  Level Estimated
10:58AM 41.2531 -70.0603 72° East  Level Estimated
10:59AM 41.2531 -70.0603 72° East  Level Estimated
11:00AM 41.2531 -70.0603 72° East  Level Estimated
11:01AM 41.2531 -70.0603 72° East  Level Estimated
11:02AM 41.2531 -70.0603 72° East  Level Estimated
11:03AM 41.2531 -70.0603 72° East  Level Estimated
11:04AM 41.2531 -70.0603 72° East  Level Estimated
11:05AM 41.2531 -70.0603 72° East  Level Estimated
11:06AM 41.2531 -70.0603 72° East  Level Estimated
11:07AM 41.2531 -70.0603 72° East  Level Estimated
11:08AM 41.2531 -70.0603 72° East  Level Estimated
11:09AM 41.2531 -70.0603 72° East  Level Estimated
11:10AM 41.2531 -70.0603 72° East  Level Estimated
11:11AM 41.2531 -70.0603 72° East  Level Estimated
11:12AM 41.2531 -70.0603 72° East  Level Estimated
11:13AM 41.2531 -70.0603 72° East  Level Estimated
11:14AM 41.2531 -70.0603 72° East  Level Estimated
11:15AM 41.2531 -70.0603 72° East  Level Estimated